Time;durP1;ratioP1;P1;durP2;ratioP2;P2;SDS_P1;SDS_P2;PMS_P1;PMS_P2;Temp;Humidity;BMP_temperature;BMP_pressure;BME280_temperature;BME280_humidity;BME280_pressure;Samples;Min_cycle;Max_cycle;Signal;HPM_P1;HPM_P2
2022/08/04 00:01:32;;;;;;;1999.90;999.90;;;23.10;99.90;;;;;;4917502;29;20185;-60
2022/08/04 00:04:02;;;;;;;1999.90;999.90;;;23.10;99.90;;;;;;4917349;29;20211;-59
2022/08/04 00:06:40;;;;;;;1999.90;999.90;;;23.10;99.90;;;;;;4917315;29;20184;-59
2022/08/04 00:09:13;;;;;;;1999.90;999.90;;;23.10;99.90;;;;;;4917116;29;20650;-59
2022/08/04 00:11:45;;;;;;;1999.90;999.90;;;23.00;99.90;;;;;;4917299;29;20185;-59
2022/08/04 00:14:15;;;;;;;1999.90;999.90;;;23.00;99.90;;;;;;4917354;29;20195;-59
2022/08/04 00:16:43;;;;;;;1999.90;999.90;;;23.00;99.90;;;;;;4916966;29;20212;-59
2022/08/04 00:19:12;;;;;;;1999.90;999.90;;;22.90;99.90;;;;;;4917027;29;20197;-59
2022/08/04 00:21:47;;;;;;;1999.90;999.90;;;22.90;99.90;;;;;;4916800;29;20215;-59
2022/08/04 00:24:15;;;;;;;1999.90;999.90;;;22.80;99.90;;;;;;4916516;29;20206;-59
2022/08/04 00:26:45;;;;;;;1999.90;999.90;;;22.80;99.90;;;;;;4917034;29;20208;-59
2022/08/04 00:29:12;;;;;;;1999.90;999.90;;;22.80;99.90;;;;;;4916626;29;20569;-59
2022/08/04 00:31:42;;;;;;;1999.90;999.90;;;22.90;99.90;;;;;;4916672;29;20192;-59
2022/08/04 00:34:11;;;;;;;1999.90;999.90;;;22.90;99.90;;;;;;4916937;29;20207;-59
2022/08/04 00:36:40;;;;;;;1999.90;999.90;;;23.00;99.90;;;;;;4916453;29;20669;-60
2022/08/04 00:39:12;;;;;;;1999.90;999.90;;;22.80;99.90;;;;;;4916776;29;20210;-58
2022/08/04 00:41:52;;;;;;;1999.90;999.90;;;22.90;99.90;;;;;;4916453;29;20710;-60
2022/08/04 00:44:37;;;;;;;1999.90;999.90;;;22.90;99.90;;;;;;4916367;29;20204;-59
2022/08/04 00:47:32;;;;;;;1999.90;999.90;;;23.10;99.90;;;;;;4916527;29;20189;-58
2022/08/04 00:50:08;;;;;;;1999.90;999.90;;;23.20;99.90;;;;;;4916469;29;20544;-59
2022/08/04 00:52:55;;;;;;;1999.90;999.90;;;23.20;99.90;;;;;;4916333;29;20270;-59
2022/08/04 00:55:44;;;;;;;1999.90;999.90;;;23.10;99.90;;;;;;4916226;29;20203;-60
2022/08/04 00:58:29;;;;;;;1999.90;999.90;;;23.10;99.90;;;;;;4916599;29;20224;-60
2022/08/04 01:01:01;;;;;;;1999.90;999.90;;;22.80;99.90;;;;;;4916513;29;20239;-58
2022/08/04 01:03:49;;;;;;;1999.90;999.90;;;22.60;99.90;;;;;;4916407;29;20197;-64
2022/08/04 01:06:29;;;;;;;1999.90;999.90;;;22.50;99.90;;;;;;4916494;29;20203;-58
2022/08/04 01:09:08;;;;;;;1999.90;999.90;;;22.40;99.90;;;;;;4916437;29;20198;-58
2022/08/04 01:11:47;;;;;;;1999.90;999.90;;;22.30;99.90;;;;;;4916086;29;20646;-59
2022/08/04 01:14:45;;;;;;;1999.90;999.90;;;22.40;99.90;;;;;;4916435;29;20188;-59
2022/08/04 01:17:20;;;;;;;1999.90;999.90;;;22.40;99.90;;;;;;4916049;29;20733;-58
2022/08/04 01:20:01;;;;;;;1999.90;999.90;;;22.60;99.90;;;;;;4916311;29;20188;-59
2022/08/04 01:23:05;;;;;;;1999.90;999.90;;;22.60;99.90;;;;;;4916103;29;20645;-59
2022/08/04 01:25:57;;;;;;;1999.90;999.90;;;22.70;99.90;;;;;;4916049;29;20224;-60
2022/08/04 01:28:30;;;;;;;1999.90;999.90;;;22.60;99.90;;;;;;4915861;29;20181;-58
2022/08/04 01:31:06;;;;;;;1999.90;999.90;;;22.60;99.90;;;;;;4915847;29;20234;-60
2022/08/04 01:33:37;;;;;;;1999.90;999.90;;;22.40;99.90;;;;;;4915847;29;20191;-60
2022/08/04 01:36:06;;;;;;;1999.90;999.90;;;22.40;99.90;;;;;;4916045;29;20699;-59
2022/08/04 01:38:35;;;;;;;1999.90;999.90;;;22.30;99.90;;;;;;4916208;29;20214;-59
2022/08/04 01:41:05;;;;;;;1999.90;999.90;;;22.40;99.90;;;;;;4915850;29;20200;-60
2022/08/04 01:43:33;;;;;;;1999.90;999.90;;;22.40;99.90;;;;;;4915837;29;20205;-59
2022/08/04 01:46:04;;;;;;;1999.90;999.90;;;22.50;99.90;;;;;;4916131;29;20207;-59
2022/08/04 01:48:32;;;;;;;1999.90;999.90;;;22.60;99.90;;;;;;4915759;29;20208;-60
2022/08/04 01:51:05;;;;;;;1999.90;999.90;;;22.70;99.90;;;;;;4915977;29;20256;-59
2022/08/04 01:53:33;;;;;;;1999.90;999.90;;;22.70;99.90;;;;;;4918260;29;20243;-57
2022/08/04 01:56:02;;;;;;;1999.90;999.90;;;22.70;99.90;;;;;;4919611;29;20225;-58
2022/08/04 01:58:30;;;;;;;1999.90;999.90;;;22.70;99.90;;;;;;4919663;29;20557;-58
2022/08/04 02:01:01;;;;;;;1999.90;999.90;;;22.70;99.90;;;;;;4919702;29;20193;-58
2022/08/04 02:03:30;;;;;;;1999.90;999.90;;;22.60;99.90;;;;;;4919357;29;20192;-58
2022/08/04 02:06:17;;;;;;;1999.90;999.90;;;22.60;99.90;;;;;;4919180;29;20720;-58
2022/08/04 02:08:53;;;;;;;1999.90;999.90;;;22.50;99.90;;;;;;4919272;29;20203;-58
2022/08/04 02:11:22;;;;;;;1999.90;999.90;;;22.40;99.90;;;;;;4919442;29;20191;-59
2022/08/04 02:13:57;;;;;;;1999.90;999.90;;;22.40;99.90;;;;;;4919313;29;20208;-58
2022/08/04 02:16:32;;;;;;;1999.90;999.90;;;22.30;99.90;;;;;;4919514;29;20198;-59
2022/08/04 02:19:09;;;;;;;1999.90;999.90;;;22.20;99.90;;;;;;4919055;29;20189;-58
2022/08/04 02:21:40;;;;;;;1999.90;999.90;;;22.30;99.90;;;;;;4919232;29;20195;-59
2022/08/04 02:24:13;;;;;;;1999.90;999.90;;;22.30;99.90;;;;;;4919022;29;20189;-58
2022/08/04 02:26:42;;;;;;;1999.90;999.90;;;22.40;99.90;;;;;;4918888;29;20195;-59
2022/08/04 02:29:16;;;;;;;1999.90;999.90;;;22.40;99.90;;;;;;4918670;29;20215;-58
2022/08/04 02:31:52;;;;;;;1999.90;999.90;;;22.40;99.90;;;;;;4919307;29;20203;-59
2022/08/04 02:34:28;;;;;;;1999.90;999.90;;;22.30;99.90;;;;;;4918872;29;20192;-58
2022/08/04 02:36:56;;;;;;;1999.90;999.90;;;22.30;99.90;;;;;;4918772;29;20191;-58
2022/08/04 02:39:26;;;;;;;1999.90;999.90;;;22.20;99.90;;;;;;4919038;29;20229;-58
2022/08/04 02:41:54;;;;;;;1999.90;999.90;;;22.20;99.90;;;;;;4918895;29;20196;-59
2022/08/04 02:44:23;;;;;;;1999.90;999.90;;;22.10;99.90;;;;;;4918892;29;20217;-59
2022/08/04 02:46:53;;;;;;;1999.90;999.90;;;22.00;99.90;;;;;;4918520;29;20215;-59
2022/08/04 02:49:23;;;;;;;1999.90;999.90;;;22.00;99.90;;;;;;4918854;29;20539;-58
2022/08/04 02:51:52;;;;;;;1999.90;999.90;;;22.00;99.90;;;;;;4918747;29;20209;-57
2022/08/04 02:54:23;;;;;;;1999.90;999.90;;;21.90;99.90;;;;;;4918350;29;20214;-59
2022/08/04 02:56:53;;;;;;;1999.90;999.90;;;21.80;99.90;;;;;;4918702;29;20189;-59
2022/08/04 02:59:25;;;;;;;1999.90;999.90;;;21.80;99.90;;;;;;4918525;29;20208;-57
2022/08/04 03:01:55;;;;;;;1999.90;999.90;;;21.70;99.90;;;;;;4918576;29;20199;-58
2022/08/04 03:04:35;;;;;;;1999.90;999.90;;;21.70;99.90;;;;;;4917071;29;20208;-58
2022/08/04 03:07:40;;;;;;;1999.90;999.90;;;21.70;99.90;;;;;;4918235;29;20597;-58
2022/08/04 03:10:36;;;;;;;1999.90;999.90;;;21.60;99.90;;;;;;4918423;29;20247;-59
2022/08/04 03:13:39;;;;;;;1999.90;999.90;;;21.60;99.90;;;;;;4918120;29;20228;-58
2022/08/04 03:16:38;;;;;;;1999.90;999.90;;;21.60;99.90;;;;;;4918360;29;20213;-59
2022/08/04 03:19:50;;;;;;;1999.90;999.90;;;21.60;99.90;;;;;;4905180;29;20230;-59
2022/08/04 03:22:55;;;;;;;1999.90;999.90;;;21.50;99.90;;;;;;4918261;29;20189;-58
2022/08/04 03:26:14;;;;;;;1999.90;999.90;;;21.50;99.90;;;;;;4917977;29;20211;-59
2022/08/04 03:29:26;;;;;;;1999.90;999.90;;;21.40;99.90;;;;;;4859615;29;20186;-58
2022/08/04 03:32:35;;;;;;;1999.90;999.90;;;21.40;99.90;;;;;;4859639;29;20203;-57
2022/08/04 03:35:27;;;;;;;1999.90;999.90;;;21.50;99.90;;;;;;4854917;29;20212;-58
2022/08/04 03:38:20;;;;;;;1999.90;999.90;;;21.50;99.90;;;;;;4859447;29;20565;-59
2022/08/04 03:41:06;;;;;;;1999.90;999.90;;;21.40;99.90;;;;;;4857827;29;20214;-58
2022/08/04 03:43:52;;;;;;;1999.90;999.90;;;21.30;99.90;;;;;;4859095;29;20234;-58
2022/08/04 03:46:43;;;;;;;1999.90;999.90;;;21.20;99.90;;;;;;4859186;29;20237;-58
2022/08/04 03:49:56;;;;;;;1999.90;999.90;;;21.20;99.90;;;;;;4859312;29;20197;-59
2022/08/04 03:53:10;;;;;;;1999.90;999.90;;;21.20;99.90;;;;;;4859086;29;20214;-59
2022/08/04 03:55:57;;;;;;;1999.90;999.90;;;21.10;99.90;;;;;;4858772;29;20310;-57
2022/08/04 03:58:43;;;;;;;1999.90;999.90;;;21.40;99.90;;;;;;4866273;29;20198;-59
2022/08/04 04:01:35;;;;;;;1999.90;999.90;;;21.60;99.90;;;;;;4917010;29;20197;-57
2022/08/04 04:04:37;;;;;;;1999.90;999.90;;;21.80;99.90;;;;;;4917478;29;20190;-59
2022/08/04 04:07:43;;;;;;;1999.90;999.90;;;21.60;99.90;;;;;;4907153;29;20202;-59
2022/08/04 04:10:31;;;;;;;1999.90;999.90;;;21.30;99.90;;;;;;4908873;29;20215;-59
2022/08/04 04:13:29;;;;;;;1999.90;999.90;;;21.00;99.90;;;;;;4917503;29;20196;-59
2022/08/04 04:16:21;;;;;;;1999.90;999.90;;;20.80;99.90;;;;;;4916632;29;20191;-58
2022/08/04 04:19:20;;;;;;;1999.90;999.90;;;20.90;99.90;;;;;;4917234;29;20202;-59
2022/08/04 04:22:15;;;;;;;1999.90;999.90;;;20.90;99.90;;;;;;4917020;29;20193;-57
2022/08/04 04:25:25;;;;;;;1999.90;999.90;;;21.00;99.90;;;;;;4916866;29;20191;-58
2022/08/04 04:28:24;;;;;;;1999.90;999.90;;;21.10;99.90;;;;;;4858677;29;20295;-58
2022/08/04 04:30:59;;;;;;;1999.90;999.90;;;21.30;99.90;;;;;;4858419;29;20233;-58
2022/08/04 04:33:38;;;;;;;1999.90;999.90;;;21.40;99.90;;;;;;4858413;29;20250;-57
2022/08/04 04:36:13;;;;;;;1999.90;999.90;;;21.40;99.90;;;;;;4858584;29;20191;-59
2022/08/04 04:39:03;;;;;;;1999.90;999.90;;;21.60;99.90;;;;;;4858312;29;20220;-59
2022/08/04 04:42:05;;;;;;;1999.90;999.90;;;21.60;99.90;;;;;;4858185;29;20190;-58
2022/08/04 04:44:55;;;;;;;1999.90;999.90;;;21.60;99.90;;;;;;4858329;29;20690;-58
2022/08/04 04:47:31;;;;;;;1999.90;999.90;;;21.60;99.90;;;;;;4858373;29;20233;-58
2022/08/04 04:50:08;;;;;;;1999.90;999.90;;;21.70;99.90;;;;;;4858279;29;20648;-58
2022/08/04 04:52:41;;;;;;;1999.90;999.90;;;21.70;99.90;;;;;;4858082;29;20590;-57
2022/08/04 04:55:18;;;;;;;1999.90;999.90;;;21.60;99.90;;;;;;4857920;29;20289;-57
2022/08/04 04:57:50;;;;;;;1999.90;999.90;;;21.50;99.90;;;;;;4865748;29;20216;-58
2022/08/04 05:00:18;;;;;;;1999.90;999.90;;;21.50;99.90;;;;;;4916406;29;20199;-58
2022/08/04 05:03:11;;;;;;;1999.90;999.90;;;21.60;99.90;;;;;;4916287;29;20687;-56
2022/08/04 05:05:49;;;;;;;1999.90;999.90;;;21.70;99.90;;;;;;4916041;29;20681;-57
2022/08/04 05:08:39;;;;;;;1999.90;999.90;;;21.90;99.90;;;;;;4916213;29;20200;-58
2022/08/04 05:11:28;;;;;;;1999.90;999.90;;;22.10;99.90;;;;;;4916259;29;20572;-58
2022/08/04 05:14:01;;;;;;;1999.90;999.90;;;22.20;99.90;;;;;;4916076;29;20196;-58
2022/08/04 05:16:34;;;;;;;1999.90;999.90;;;22.30;99.90;;;;;;4915994;29;20188;-57
2022/08/04 05:19:14;;;;;;;1999.90;999.90;;;22.40;99.90;;;;;;4916577;29;20199;-57
2022/08/04 05:21:47;;;;;;;1999.90;999.90;;;22.60;99.90;;;;;;4916487;29;20194;-57
2022/08/04 05:24:17;;;;;;;1999.90;999.90;;;22.70;99.90;;;;;;4916161;29;20235;-57
2022/08/04 05:26:48;;;;;;;1999.90;999.90;;;22.80;99.90;;;;;;4915917;29;20214;-57
2022/08/04 05:29:26;;;;;;;1999.90;999.90;;;22.90;99.90;;;;;;4919570;29;20703;-57
2022/08/04 05:31:55;;;;;;;1999.90;999.90;;;23.10;99.90;;;;;;4920324;29;20184;-57
2022/08/04 05:34:27;;;;;;;1999.90;999.90;;;23.40;99.90;;;;;;4919811;29;20282;-57
2022/08/04 05:36:59;;;;;;;1999.90;999.90;;;24.00;99.90;;;;;;4920079;29;20185;-57
2022/08/04 05:39:28;;;;;;;1999.90;999.90;;;24.80;99.90;;;;;;4920032;29;20196;-58
2022/08/04 05:41:58;;;;;;;1999.90;999.90;;;25.30;99.90;;;;;;4919983;29;20210;-57
2022/08/04 05:44:28;;;;;;;1999.90;999.90;;;25.60;99.90;;;;;;4919593;29;20211;-57
2022/08/04 05:46:57;;;;;;;1999.90;999.90;;;25.70;99.90;;;;;;4919487;29;20535;-57
2022/08/04 05:49:26;;;;;;;1999.90;999.90;;;25.60;99.90;;;;;;4919836;29;20200;-57
2022/08/04 05:51:58;;;;;;;1999.90;999.90;;;25.20;99.90;;;;;;4919539;29;20206;-56
2022/08/04 05:54:26;;;;;;;1999.90;999.90;;;24.90;99.90;;;;;;4919610;29;20197;-56
2022/08/04 05:56:54;;;;;;;1999.90;999.90;;;24.80;99.90;;;;;;4919424;29;20670;-57
2022/08/04 05:59:24;;;;;;;1999.90;999.90;;;24.80;99.90;;;;;;4919689;29;20247;-56
2022/08/04 06:01:56;;;;;;;1999.90;999.90;;;24.80;99.90;;;;;;4919316;29;20204;-57
2022/08/04 06:04:24;;;;;;;1999.90;999.90;;;25.50;99.90;;;;;;4919346;29;20184;-57
2022/08/04 06:06:52;;;;;;;1999.90;999.90;;;26.70;99.90;;;;;;4919186;29;20229;-57
2022/08/04 06:09:20;;;;;;;1999.90;999.90;;;26.80;9.50;;;;;;4919223;29;20547;-58
2022/08/04 06:11:49;;;;;;;1999.90;999.90;;;27.00;99.90;;;;;;4919446;29;20204;-58
2022/08/04 06:14:17;;;;;;;1999.90;999.90;;;27.20;1.00;;;;;;4919458;29;20215;-57
2022/08/04 06:16:45;;;;;;;1999.90;999.90;;;26.80;1.00;;;;;;4919142;29;20215;-58
2022/08/04 06:19:15;;;;;;;1999.90;999.90;;;27.00;99.90;;;;;;4919171;29;20685;-58
2022/08/04 06:21:47;;;;;;;1999.90;999.90;;;27.00;99.90;;;;;;4919241;29;20185;-59
2022/08/04 06:24:18;;;;;;;1999.90;999.90;;;27.50;1.00;;;;;;4919043;29;20188;-58
2022/08/04 06:26:48;;;;;;;1999.90;999.90;;;28.00;1.00;;;;;;4918777;29;20208;-58
2022/08/04 06:29:23;;;;;;;1999.90;999.90;;;28.50;99.90;;;;;;4918362;29;20240;-58
2022/08/04 06:31:57;;;;;;;1999.90;999.90;;;27.70;1.00;;;;;;4918856;29;20321;-57
2022/08/04 06:34:27;;;;;;;1999.90;999.90;;;27.50;99.90;;;;;;4918719;29;20198;-57
2022/08/04 06:36:55;;;;;;;1999.90;999.90;;;27.80;13.00;;;;;;4919067;29;20199;-57
2022/08/04 06:39:23;;;;;;;1999.90;999.90;;;28.30;1.00;;;;;;4918268;29;20204;-59
2022/08/04 06:41:52;;;;;;;1999.90;999.90;;;29.60;1.00;;;;;;4918619;29;20226;-59
2022/08/04 06:44:21;;;;;;;1999.90;999.90;;;29.40;1.00;;;;;;4918764;29;20214;-59
2022/08/04 06:46:48;;;;;;;1999.90;999.90;;;30.10;1.00;;;;;;4926904;29;20211;-60
2022/08/04 06:49:18;;;;;;;1999.90;999.90;;;30.50;99.90;;;;;;4937041;29;20680;-58
2022/08/04 06:51:48;;;;;;;1999.90;999.90;;;31.10;99.90;;;;;;4937461;29;20210;-59
2022/08/04 06:54:15;;;;;;;1999.90;999.90;;;31.10;99.90;;;;;;4937561;29;20204;-60
2022/08/04 06:56:44;;;;;;;1999.90;999.90;;;30.30;99.90;;;;;;4937628;29;20249;-58
2022/08/04 06:59:14;;;;;;;1999.90;999.90;;;29.90;99.90;;;;;;4937146;29;20701;-57
2022/08/04 07:01:42;;;;;;;1999.90;999.90;;;31.00;26.00;;;;;;4937265;29;20251;-57
2022/08/04 07:04:11;;;;;;;1999.90;999.90;;;30.60;30.60;;;;;;4937582;29;20203;-58
2022/08/04 07:06:38;;;;;;;1999.90;999.90;;;31.30;1.00;;;;;;4937442;29;20220;-58
2022/08/04 07:09:07;;;;;;;1999.90;999.90;;;30.90;1.00;;;;;;4937447;29;20208;-59
2022/08/04 07:11:35;;;;;;;1999.90;999.90;;;31.00;1.00;;;;;;4937120;29;20199;-59
2022/08/04 07:14:04;;;;;;;1999.90;999.90;;;31.30;1.00;;;;;;4937052;29;20551;-58
2022/08/04 07:16:33;;;;;;;1999.90;999.90;;;31.40;1.00;;;;;;4936869;29;20204;-58
2022/08/04 07:19:00;;;;;;;1999.90;999.90;;;31.10;1.00;;;;;;4936963;29;20196;-59
2022/08/04 07:21:27;;;;;;;1999.90;999.90;;;30.60;1.00;;;;;;4936893;29;20211;-59
2022/08/04 07:23:55;;;;;;;1999.90;999.90;;;30.60;1.00;;;;;;4937102;29;20229;-59
2022/08/04 07:26:28;;;;;;;1999.90;999.90;;;30.60;1.00;;;;;;4936714;29;20562;-59
2022/08/04 07:28:58;;;;;;;1999.90;999.90;;;30.30;1.00;;;;;;4936578;29;20664;-58
2022/08/04 07:31:26;;;;;;;1999.90;999.90;;;29.90;1.00;;;;;;4936744;29;20184;-59
2022/08/04 07:33:55;;;;;;;1999.90;999.90;;;30.00;1.00;;;;;;4936682;29;20204;-59
2022/08/04 07:36:22;;;;;;;1999.90;999.90;;;29.80;1.00;;;;;;4936730;29;20196;-58
2022/08/04 07:38:49;;;;;;;1999.90;999.90;;;30.30;1.00;;;;;;4936974;29;20211;-59
2022/08/04 07:41:20;;;;;;;1999.90;999.90;;;30.50;1.00;;;;;;4936667;29;20568;-59
2022/08/04 07:43:49;;;;;;;1999.90;999.90;;;30.60;1.00;;;;;;4936573;29;20214;-59
2022/08/04 07:46:17;;;;;;;1999.90;999.90;;;31.30;99.90;;;;;;4936696;29;20230;-59
2022/08/04 07:48:44;;;;;;;1999.90;999.90;;;30.80;1.00;;;;;;4936636;29;20206;-59
2022/08/04 07:51:11;;;;;;;1999.90;999.90;;;31.10;1.00;;;;;;4935656;29;20202;-60
2022/08/04 07:53:40;;;;;;;1999.90;999.90;;;30.60;1.00;;;;;;4936609;29;20208;-57
2022/08/04 07:56:07;;;;;;;1999.90;999.90;;;30.90;1.00;;;;;;4936197;29;20739;-57
2022/08/04 07:58:35;;;;;;;1999.90;999.90;;;31.40;1.00;;;;;;4935974;29;20210;-57
2022/08/04 08:01:03;;;;;;;1999.90;999.90;;;31.70;1.00;;;;;;4936247;29;20545;-58
2022/08/04 08:03:31;;;;;;;1999.90;999.90;;;31.00;1.00;;;;;;4936340;29;20203;-59
2022/08/04 08:05:58;;;;;;;1999.90;999.90;;;30.50;1.00;;;;;;4936364;29;20204;-58
2022/08/04 08:08:25;;;;;;;1999.90;999.90;;;30.80;1.00;;;;;;4936359;29;20200;-58
2022/08/04 08:10:52;;;;;;;1999.90;999.90;;;30.60;1.00;;;;;;4936309;29;20195;-59
2022/08/04 08:13:20;;;;;;;1999.90;999.90;;;30.30;1.00;;;;;;4936237;29;20208;-58
2022/08/04 08:15:48;;;;;;;1999.90;999.90;;;30.90;1.00;;;;;;4936002;29;20200;-58
2022/08/04 08:18:17;;;;;;;1999.90;999.90;;;31.10;1.00;;;;;;4935665;29;20214;-58
2022/08/04 08:20:45;;;;;;;1999.90;999.90;;;30.70;1.00;;;;;;4935760;29;20665;-58
2022/08/04 08:23:13;;;;;;;1999.90;999.90;;;30.80;99.90;;;;;;4935704;29;21038;-58
2022/08/04 08:25:40;;;;;;;1999.90;999.90;;;30.90;1.00;;;;;;4935979;29;20568;-58
2022/08/04 08:28:07;;;;;;;1999.90;999.90;;;31.20;99.90;;;;;;4935557;29;20577;-58
2022/08/04 08:30:35;;;;;;;1999.90;999.90;;;31.80;99.90;;;;;;4935782;29;20238;-58
2022/08/04 08:33:05;;;;;;;1999.90;999.90;;;31.40;99.90;;;;;;4935633;29;20567;-58
2022/08/04 08:35:44;;;;;;;1999.90;999.90;;;31.30;99.90;;;;;;4935446;29;20188;-58
2022/08/04 08:38:15;;;;;;;1999.90;999.90;;;31.70;1.00;;;;;;4936005;29;20188;-58
2022/08/04 08:40:50;;;;;;;1999.90;999.90;;;31.90;99.90;;;;;;4936113;29;20646;-59
2022/08/04 08:43:36;;;;;;;1999.90;999.90;;;32.00;99.90;;;;;;4935937;29;20201;-59
2022/08/04 08:46:20;;;;;;;1999.90;999.90;;;31.70;99.90;;;;;;4935374;29;20662;-59
2022/08/04 08:49:08;;;;;;;1999.90;999.90;;;31.80;99.90;;;;;;4935364;29;20646;-59
2022/08/04 08:51:58;;;;;;;1999.90;999.90;;;32.10;99.90;;;;;;4935299;29;20180;-59
2022/08/04 08:54:47;;;;;;;1999.90;999.90;;;32.30;99.90;;;;;;4935551;29;20212;-60
2022/08/04 08:57:42;;;;;;;1999.90;999.90;;;31.20;99.90;;;;;;4935477;29;20184;-58
2022/08/04 09:00:16;;;;;;;1999.90;999.90;;;31.40;99.90;;;;;;4935305;29;20191;-60
2022/08/04 09:03:17;;;;;;;1999.90;999.90;;;31.70;99.90;;;;;;4935484;29;20188;-59
2022/08/04 09:05:57;;;;;;;1999.90;999.90;;;32.10;99.90;;;;;;4935177;29;20192;-59
2022/08/04 09:08:56;;;;;;;1999.90;999.90;;;31.60;99.90;;;;;;4935427;29;20204;-58
2022/08/04 09:11:27;;;;;;;1999.90;999.90;;;31.90;99.90;;;;;;4935355;29;20211;-59
2022/08/04 09:13:57;;;;;;;1999.90;999.90;;;32.50;99.90;;;;;;4935078;29;20206;-59
2022/08/04 09:16:35;;;;;;;1999.90;999.90;;;32.40;99.90;;;;;;4935168;29;20568;-60
2022/08/04 09:19:08;;;;;;;1999.90;999.90;;;32.30;99.90;;;;;;4935062;29;20290;-60
2022/08/04 09:21:39;;;;;;;1999.90;999.90;;;31.40;99.90;;;;;;4935501;29;20192;-59
2022/08/04 09:24:12;;;;;;;1999.90;999.90;;;31.70;99.90;;;;;;4935001;29;20598;-60
2022/08/04 09:26:46;;;;;;;1999.90;999.90;;;32.50;99.90;;;;;;4934947;29;20222;-60
2022/08/04 09:29:19;;;;;;;1999.90;999.90;;;32.00;99.90;;;;;;4935038;29;20309;-60
2022/08/04 09:31:54;;;;;;;1999.90;999.90;;;31.80;99.90;;;;;;4935004;29;20187;-60
2022/08/04 09:34:32;;;;;;;1999.90;999.90;;;31.00;99.90;;;;;;4935060;29;20622;-60
2022/08/04 09:37:13;;;;;;;1999.90;999.90;;;31.30;99.90;;;;;;4935243;29;20231;-59
2022/08/04 09:39:53;;;;;;;1999.90;999.90;;;32.10;99.90;;;;;;4935221;29;20242;-60
2022/08/04 09:42:28;;;;;;;1999.90;999.90;;;33.20;99.90;;;;;;4935062;29;20250;-60
2022/08/04 09:45:07;;;;;;;1999.90;999.90;;;32.40;99.90;;;;;;4935131;29;20645;-60
2022/08/04 09:47:39;;;;;;;1999.90;999.90;;;31.80;99.90;;;;;;4934995;29;20211;-60
2022/08/04 09:50:16;;;;;;;1999.90;999.90;;;31.70;99.90;;;;;;4934851;29;20192;-60
2022/08/04 09:52:53;;;;;;;1999.90;999.90;;;31.60;99.90;;;;;;4934885;29;20556;-60
2022/08/04 09:55:34;;;;;;;1999.90;999.90;;;31.50;99.90;;;;;;4934746;29;20190;-60
2022/08/04 09:58:07;;;;;;;1999.90;999.90;;;31.60;99.90;;;;;;4934756;29;20189;-60
2022/08/04 10:00:41;;;;;;;1999.90;999.90;;;31.80;99.90;;;;;;4935021;29;20199;-59
2022/08/04 10:03:11;;;;;;;1999.90;999.90;;;31.80;99.90;;;;;;4934526;29;20200;-59
2022/08/04 10:05:51;;;;;;;1999.90;999.90;;;31.50;99.90;;;;;;4935020;29;20187;-60
2022/08/04 10:08:34;;;;;;;1999.90;999.90;;;30.90;99.90;;;;;;4934893;29;20212;-59
2022/08/04 10:11:09;;;;;;;1999.90;999.90;;;30.90;99.90;;;;;;4934680;29;20729;-58
2022/08/04 10:13:48;;;;;;;1999.90;999.90;;;30.60;99.90;;;;;;4936095;29;20198;-58
2022/08/04 10:16:37;;;;;;;1999.90;999.90;;;30.70;99.90;;;;;;4938178;29;20207;-59
2022/08/04 10:19:17;;;;;;;1999.90;999.90;;;30.80;99.90;;;;;;4938131;29;20219;-60
2022/08/04 10:21:59;;;;;;;1999.90;999.90;;;30.80;1.00;;;;;;4938451;29;20188;-60
2022/08/04 10:24:36;;;;;;;1999.90;999.90;;;30.90;1.00;;;;;;4937991;29;20194;-60
2022/08/04 10:27:12;;;;;;;1999.90;999.90;;;30.80;1.00;;;;;;4938246;29;20204;-60
2022/08/04 10:29:44;;;;;;;1999.90;999.90;;;30.90;1.00;;;;;;4937764;29;20235;-60
2022/08/04 10:32:17;;;;;;;1999.90;999.90;;;31.00;1.00;;;;;;4938413;29;20192;-61
2022/08/04 10:35:01;;;;;;;1999.90;999.90;;;31.10;1.00;;;;;;4938112;29;20191;-60
2022/08/04 10:37:32;;;;;;;1999.90;999.90;;;30.60;1.00;;;;;;4938367;29;20190;-59
2022/08/04 10:43:00;;;;;;;1999.90;999.90;;;30.40;1.00;;;;;;4937747;29;20246;-59
2022/08/04 10:45:34;;;;;;;1999.90;999.90;;;30.10;1.00;;;;;;4937991;29;20203;-59
2022/08/04 10:48:07;;;;;;;1999.90;999.90;;;29.70;1.00;;;;;;4937775;29;20199;-60
2022/08/04 10:50:40;;;;;;;1999.90;999.90;;;29.20;1.00;;;;;;4937573;29;20670;-59
2022/08/04 10:53:13;;;;;;;1999.90;999.90;;;29.10;1.00;;;;;;4937796;29;20184;-59
2022/08/04 10:55:47;;;;;;;1999.90;999.90;;;28.60;1.00;;;;;;4937638;29;20560;-60
2022/08/04 10:58:20;;;;;;;1999.90;999.90;;;28.30;99.90;;;;;;4937580;29;20187;-60
2022/08/04 11:00:48;;;;;;;1999.90;999.90;;;28.20;99.90;;;;;;4937639;29;20180;-59
2022/08/04 11:03:21;;;;;;;1999.90;999.90;;;28.30;1.00;;;;;;4937702;29;20208;-59
2022/08/04 11:05:52;;;;;;;1999.90;999.90;;;28.50;1.00;;;;;;4937543;29;20196;-60
2022/08/04 11:08:23;;;;;;;1999.90;999.90;;;28.50;99.90;;;;;;4937131;29;20211;-59
2022/08/04 11:10:59;;;;;;;1999.90;999.90;;;28.70;99.90;;;;;;4937162;29;20188;-60
2022/08/04 11:13:34;;;;;;;1999.90;999.90;;;28.80;99.90;;;;;;4937463;29;20230;-59
2022/08/04 11:16:08;;;;;;;1999.90;999.90;;;28.90;1.00;;;;;;4937424;29;20192;-59
2022/08/04 11:18:46;;;;;;;1999.90;999.90;;;29.10;1.00;;;;;;4937298;29;20175;-58
2022/08/04 11:21:18;;;;;;;1999.90;999.90;;;29.30;99.90;;;;;;4937025;29;20553;-60
2022/08/04 11:23:52;;;;;;;1999.90;999.90;;;29.50;99.90;;;;;;4937047;29;20199;-60
2022/08/04 11:26:24;;;;;;;1999.90;999.90;;;29.60;99.90;;;;;;4935804;29;20665;-59
2022/08/04 11:29:01;;;;;;;1999.90;999.90;;;30.10;1.00;;;;;;4937070;29;20211;-59
2022/08/04 11:31:32;;;;;;;1999.90;999.90;;;30.20;1.00;;;;;;4936688;29;20235;-60
2022/08/04 11:34:05;;;;;;;1999.90;999.90;;;30.50;1.00;;;;;;4936970;29;20191;-63
2022/08/04 11:36:39;;;;;;;1999.90;999.90;;;30.40;1.00;;;;;;4936711;28;20191;-60
2022/08/04 11:39:12;;;;;;;1999.90;999.90;;;30.80;1.00;;;;;;4937118;29;20190;-60
2022/08/04 11:41:48;;;;;;;1999.90;999.90;;;31.10;1.00;;;;;;4936656;29;20242;-60
2022/08/04 11:44:25;;;;;;;1999.90;999.90;;;31.10;1.00;;;;;;4936604;29;20183;-60
2022/08/04 11:46:57;;;;;;;1999.90;999.90;;;30.60;1.00;;;;;;4936644;29;20656;-60
2022/08/04 11:49:34;;;;;;;1999.90;999.90;;;30.40;1.00;;;;;;4936825;29;20195;-60
2022/08/04 11:52:03;;;;;;;1999.90;999.90;;;30.30;1.00;;;;;;4936743;29;20191;-61
2022/08/04 11:54:34;;;;;;;1999.90;999.90;;;30.30;1.00;;;;;;4936630;29;20211;-60
2022/08/04 11:57:01;;;;;;;1999.90;999.90;;;30.60;1.00;;;;;;4936368;29;20188;-60
2022/08/04 11:59:33;;;;;;;1999.90;999.90;;;30.60;1.00;;;;;;4936481;29;20207;-60
2022/08/04 12:02:19;;;;;;;1999.90;999.90;;;30.50;1.00;;;;;;4936501;29;20192;-60
2022/08/04 12:04:55;;;;;;;1999.90;999.90;;;30.60;1.00;;;;;;4936214;29;20192;-60
2022/08/04 12:07:37;;;;;;;1999.90;999.90;;;30.70;1.00;;;;;;4936384;29;20213;-59
2022/08/04 12:10:15;;;;;;;1999.90;999.90;;;30.60;1.00;;;;;;4936427;29;20548;-60
2022/08/04 12:12:49;;;;;;;1999.90;999.90;;;30.30;1.00;;;;;;4936330;29;20187;-60
2022/08/04 12:15:23;;;;;;;1999.90;999.90;;;30.50;1.00;;;;;;4936029;29;20688;-60
2022/08/04 12:18:10;;;;;;;1999.90;999.90;;;30.80;1.00;;;;;;4936029;29;20184;-61
2022/08/04 12:20:43;;;;;;;1999.90;999.90;;;31.20;1.00;;;;;;4936200;29;20183;-60
2022/08/04 12:23:19;;;;;;;1999.90;999.90;;;31.30;1.00;;;;;;4936417;29;20184;-61
2022/08/04 12:25:50;;;;;;;1999.90;999.90;;;31.30;1.00;;;;;;4935689;29;20194;-60
2022/08/04 12:28:25;;;;;;;1999.90;999.90;;;31.70;99.90;;;;;;4935664;29;20230;-60
2022/08/04 12:31:05;;;;;;;1999.90;999.90;;;31.80;1.00;;;;;;4935659;29;20735;-61
2022/08/04 12:33:39;;;;;;;1999.90;999.90;;;33.00;99.90;;;;;;4935654;29;20195;-60
2022/08/04 12:36:18;;;;;;;1999.90;999.90;;;34.00;99.90;;;;;;4935657;29;20545;-60
2022/08/04 12:38:52;;;;;;;1999.90;999.90;;;33.80;99.90;;;;;;4935944;29;20180;-60
2022/08/04 12:41:24;;;;;;;1999.90;999.90;;;34.10;99.90;;;;;;4935675;29;20196;-61
2022/08/04 12:43:54;;;;;;;1999.90;999.90;;;34.70;99.90;;;;;;4935871;29;20200;-60
2022/08/04 12:46:25;;;;;;;1999.90;999.90;;;34.30;99.90;;;;;;4935816;29;20208;-60
2022/08/04 12:48:58;;;;;;;1999.90;999.90;;;33.70;99.90;;;;;;4935789;29;20208;-61